createdAt,value
2018-06-12T00:00:10.508Z,9.90
2018-06-12T00:02:38.670Z,10.27
2018-06-12T00:05:06.855Z,10.00
2018-06-12T00:07:35.042Z,9.83
2018-06-12T00:10:03.271Z,9.67
2018-06-12T00:12:31.433Z,9.60
2018-06-12T00:14:59.615Z,9.83
2018-06-12T00:17:27.780Z,9.90
2018-06-12T00:19:55.933Z,10.33
2018-06-12T00:22:24.265Z,10.40
2018-06-12T00:24:52.728Z,11.37
2018-06-12T00:27:20.901Z,10.73
2018-06-12T00:29:49.112Z,10.37
2018-06-12T00:32:17.315Z,10.90
2018-06-12T00:34:45.478Z,11.27
2018-06-12T00:37:13.728Z,11.10
2018-06-12T00:39:41.892Z,11.50
2018-06-12T00:42:10.061Z,11.10
2018-06-12T00:44:38.239Z,11.23
2018-06-12T00:47:06.424Z,11.27
2018-06-12T00:49:34.569Z,11.50
2018-06-12T00:52:02.777Z,12.00
2018-06-12T00:54:30.943Z,11.30
2018-06-12T00:57:04.716Z,11.73
2018-06-12T00:59:32.889Z,11.33
2018-06-12T01:02:01.093Z,11.83
2018-06-12T01:04:29.018Z,12.00
2018-06-12T01:06:57.214Z,11.17
2018-06-12T01:09:25.401Z,10.83
2018-06-12T01:11:53.777Z,11.43
2018-06-12T01:14:21.941Z,10.57
2018-06-12T01:16:50.097Z,11.60
2018-06-12T01:19:18.352Z,11.13
2018-06-12T01:21:46.513Z,11.73
2018-06-12T01:24:14.703Z,11.40
2018-06-12T01:26:42.885Z,11.57
2018-06-12T01:29:11.076Z,11.80
2018-06-12T01:31:39.261Z,12.00
2018-06-12T01:34:07.446Z,11.17
2018-06-12T01:36:35.618Z,12.13
2018-06-12T01:39:05.773Z,11.90
2018-06-12T01:41:34.013Z,11.67
2018-06-12T01:44:02.193Z,11.87
2018-06-12T01:46:30.366Z,12.27
2018-06-12T01:48:58.574Z,12.73
2018-06-12T01:51:26.753Z,12.37
2018-06-12T01:53:54.932Z,13.20
2018-06-12T01:56:23.115Z,12.53
2018-06-12T01:58:51.325Z,12.27
2018-06-12T02:01:19.590Z,12.67
2018-06-12T02:03:47.787Z,12.83
2018-06-12T02:06:16.018Z,12.60
2018-06-12T02:08:44.240Z,13.00
2018-06-12T02:11:12.423Z,13.93
2018-06-12T02:13:40.628Z,14.80
2018-06-12T02:16:08.845Z,13.57
2018-06-12T02:18:37.267Z,13.93
2018-06-12T02:21:05.435Z,13.83
2018-06-12T02:23:33.635Z,14.83
2018-06-12T02:26:01.787Z,13.63
2018-06-12T02:28:29.957Z,13.80
2018-06-12T02:30:58.168Z,13.47
2018-06-12T02:33:26.342Z,13.53
2018-06-12T02:35:54.493Z,13.53
2018-06-12T02:38:22.681Z,13.00
2018-06-12T02:40:50.835Z,13.80
2018-06-12T02:43:19.030Z,13.80
2018-06-12T02:45:47.246Z,14.57
2018-06-12T02:48:15.445Z,13.43
2018-06-12T02:50:43.612Z,13.00
2018-06-12T02:53:11.735Z,13.23
2018-06-12T02:55:39.897Z,13.37
2018-06-12T02:58:08.078Z,13.93
2018-06-12T03:00:36.262Z,13.27
2018-06-12T03:03:04.468Z,13.33
2018-06-12T03:05:32.673Z,14.00
2018-06-12T03:08:01.001Z,14.03
2018-06-12T03:10:29.192Z,13.57
2018-06-12T03:12:57.393Z,14.93
2018-06-12T03:15:25.603Z,13.90
2018-06-12T03:17:53.764Z,13.43
2018-06-12T03:20:33.913Z,14.60
2018-06-12T03:23:02.093Z,13.13
2018-06-12T03:25:30.280Z,13.90
2018-06-12T03:27:58.500Z,14.47
2018-06-12T03:30:26.677Z,13.93
2018-06-12T03:32:54.872Z,14.43
2018-06-12T03:35:23.056Z,15.33
2018-06-12T03:37:51.273Z,14.47
2018-06-12T03:40:19.422Z,13.63
2018-06-12T03:42:47.608Z,13.47
2018-06-12T03:45:15.788Z,13.43
2018-06-12T03:47:43.950Z,13.17
2018-06-12T03:50:12.193Z,12.80
2018-06-12T03:52:40.375Z,11.93
2018-06-12T03:55:08.532Z,12.80
2018-06-12T03:57:43.028Z,12.87
2018-06-12T04:00:11.209Z,12.70
2018-06-12T04:02:39.384Z,11.73
2018-06-12T04:05:07.585Z,11.77
2018-06-12T04:07:35.755Z,11.40
2018-06-12T04:10:03.936Z,11.43
2018-06-12T04:12:32.116Z,10.93
2018-06-12T04:15:00.306Z,11.13
2018-06-12T04:17:28.453Z,11.23
2018-06-12T04:19:56.652Z,11.60
2018-06-12T04:22:24.814Z,11.27
2018-06-12T04:24:52.963Z,11.80
2018-06-12T04:27:21.125Z,11.33
2018-06-12T04:29:49.287Z,11.93
2018-06-12T04:32:17.449Z,11.67
2018-06-12T04:34:45.664Z,10.93
2018-06-12T04:37:13.820Z,11.00
2018-06-12T04:39:41.994Z,10.90
2018-06-12T04:42:10.207Z,10.20
2018-06-12T04:44:38.382Z,9.87
2018-06-12T04:47:06.562Z,10.37
2018-06-12T04:49:34.747Z,9.83
2018-06-12T04:52:02.900Z,9.57
2018-06-12T04:54:31.127Z,9.47
2018-06-12T04:56:59.280Z,9.23
2018-06-12T04:59:27.461Z,9.30
2018-06-12T05:01:57.777Z,9.33
2018-06-12T05:04:25.966Z,9.60
2018-06-12T05:06:54.207Z,8.73
2018-06-12T05:09:22.532Z,9.57
2018-06-12T05:11:50.852Z,8.83
2018-06-12T05:14:19.038Z,8.67
2018-06-12T05:16:47.238Z,9.67
2018-06-12T05:19:15.425Z,9.70
2018-06-12T05:21:43.361Z,9.37
2018-06-12T05:24:11.532Z,9.13
2018-06-12T05:26:43.246Z,8.70
2018-06-12T05:29:12.148Z,8.93
2018-06-12T05:31:40.321Z,9.10
2018-06-12T05:34:08.688Z,8.73
2018-06-12T05:36:36.877Z,9.10
2018-06-12T05:39:08.688Z,9.03
2018-06-12T05:41:37.682Z,9.33
2018-06-12T05:44:05.882Z,10.27
2018-06-12T05:46:34.052Z,10.23
2018-06-12T05:49:02.222Z,10.13
2018-06-12T05:51:30.449Z,10.47
2018-06-12T05:53:58.386Z,11.30
2018-06-12T05:56:26.563Z,12.27
2018-06-12T05:58:54.766Z,13.33
2018-06-12T06:01:22.955Z,13.63
2018-06-12T06:03:51.141Z,13.23
2018-06-12T06:06:19.296Z,14.63
2018-06-12T06:08:47.503Z,14.47
2018-06-12T06:11:15.682Z,13.23
2018-06-12T06:13:43.828Z,13.00
2018-06-12T06:16:11.992Z,13.50
2018-06-12T06:18:40.185Z,12.57
2018-06-12T06:21:08.358Z,12.17
2018-06-12T06:23:36.550Z,12.53
2018-06-12T06:26:04.746Z,12.00
2018-06-12T06:28:32.660Z,12.50
2018-06-12T06:31:01.868Z,11.00
2018-06-12T06:33:30.493Z,10.37
2018-06-12T06:35:58.661Z,10.03
2018-06-12T06:38:26.819Z,10.37
2018-06-12T06:40:55.120Z,10.53
2018-06-12T06:43:23.291Z,11.27
2018-06-12T06:45:51.451Z,10.73
2018-06-12T06:48:21.158Z,10.90
2018-06-12T06:50:49.337Z,10.53
2018-06-12T06:53:17.554Z,11.97
2018-06-12T06:55:45.730Z,12.40
2018-06-12T06:58:13.898Z,12.27
2018-06-12T07:00:42.116Z,13.60
2018-06-12T07:03:10.321Z,12.50
2018-06-12T07:05:38.523Z,12.67
2018-06-12T07:08:06.759Z,13.13
2018-06-12T07:10:34.989Z,11.40
2018-06-12T07:13:03.239Z,10.83
2018-06-12T07:15:31.467Z,10.93
2018-06-12T07:17:59.653Z,11.00
2018-06-12T07:20:39.168Z,9.30
2018-06-12T07:23:07.422Z,8.47
2018-06-12T07:25:35.621Z,7.60
2018-06-12T07:28:03.832Z,7.50
2018-06-12T07:30:32.060Z,7.07
2018-06-12T07:33:00.246Z,11.93
2018-06-12T07:35:28.463Z,8.97
2018-06-12T07:37:56.649Z,5.80
2018-06-12T07:40:24.871Z,5.40
2018-06-12T07:42:53.054Z,6.43
2018-06-12T07:45:21.228Z,22.17
2018-06-12T07:47:49.422Z,5.60
2018-06-12T07:50:17.650Z,5.37
2018-06-12T07:52:45.869Z,5.40
2018-06-12T07:55:14.100Z,5.07
2018-06-12T07:57:42.402Z,5.03
2018-06-12T08:00:10.332Z,7.50
2018-06-12T08:02:38.560Z,7.17
